Time;durP1;ratioP1;P1;durP2;ratioP2;P2;SDS_P1;SDS_P2;PMS_P1;PMS_P2;Temp;Humidity;BMP_temperature;BMP_pressure;BME280_temperature;BME280_humidity;BME280_pressure;Samples;Min_cycle;Max_cycle;Signal;HPM_P1;HPM_P2
2021/03/23 00:01:28;;;;;;;10.35;1.77;;;8.70;93.80;;;;;;5050438;28;20029;-84
2021/03/23 00:03:54;;;;;;;8.18;1.67;;;8.70;93.60;;;;;;5049651;28;20044;-84
2021/03/23 00:06:27;;;;;;;4.68;1.50;;;8.80;93.70;;;;;;5049755;28;20116;-85
2021/03/23 00:08:56;;;;;;;8.45;1.98;;;8.80;93.30;;;;;;5052226;28;20107;-83
2021/03/23 00:11:25;;;;;;;4.05;1.48;;;8.80;93.30;;;;;;5049424;28;20104;-81
2021/03/23 00:13:52;;;;;;;6.63;1.63;;;8.80;93.50;;;;;;5048954;28;20101;-84
2021/03/23 00:16:20;;;;;;;3.63;1.80;;;8.60;93.50;;;;;;5049195;28;20048;-85
2021/03/23 00:18:47;;;;;;;2.83;1.40;;;8.50;93.80;;;;;;5049819;28;20124;-84
2021/03/23 00:21:13;;;;;;;7.57;2.30;;;8.60;93.90;;;;;;5050991;28;20029;-83
2021/03/23 00:23:39;;;;;;;5.97;1.80;;;8.60;93.90;;;;;;5032990;28;20626;-84
2021/03/23 00:26:07;;;;;;;3.17;1.95;;;8.70;93.90;;;;;;5044657;28;20447;-84
2021/03/23 00:28:35;;;;;;;4.05;2.30;;;8.60;94.00;;;;;;5049613;28;20048;-85
2021/03/23 00:31:01;;;;;;;6.33;1.90;;;8.70;93.90;;;;;;5042887;28;20053;-83
2021/03/23 00:33:27;;;;;;;4.80;2.20;;;8.60;94.10;;;;;;5029477;28;20282;-82
2021/03/23 00:35:56;;;;;;;7.32;2.35;;;8.70;94.10;;;;;;5031863;28;20525;-84
2021/03/23 00:38:22;;;;;;;6.95;2.63;;;8.80;94.20;;;;;;5029269;28;20030;-83
2021/03/23 00:40:48;;;;;;;5.50;2.42;;;8.80;94.20;;;;;;5028807;28;20032;-83
2021/03/23 00:43:14;;;;;;;7.20;2.58;;;8.80;94.40;;;;;;5037172;28;20086;-83
2021/03/23 00:45:42;;;;;;;7.07;2.13;;;8.80;94.30;;;;;;5049493;28;20033;-84
2021/03/23 00:48:09;;;;;;;5.88;2.40;;;8.80;94.40;;;;;;5051546;28;20455;-83
2021/03/23 00:50:36;;;;;;;4.53;2.55;;;8.80;94.40;;;;;;5049986;28;20410;-84
2021/03/23 00:53:01;;;;;;;6.57;2.15;;;8.90;94.50;;;;;;5049792;28;20529;-83
2021/03/23 00:55:27;;;;;;;7.40;2.70;;;8.80;94.50;;;;;;5050355;28;20264;-83
2021/03/23 00:57:52;;;;;;;5.95;2.63;;;8.70;94.60;;;;;;5049170;28;20045;-83
2021/03/23 01:00:19;;;;;;;6.00;2.47;;;8.70;94.70;;;;;;5050407;28;20024;-86
2021/03/23 01:02:45;;;;;;;7.53;2.72;;;8.60;94.80;;;;;;5051068;28;20351;-83
2021/03/23 01:05:14;;;;;;;6.45;2.58;;;8.70;94.80;;;;;;5049854;28;20493;-83
2021/03/23 01:07:39;;;;;;;9.15;3.10;;;8.60;94.80;;;;;;5049062;28;20049;-84
2021/03/23 01:10:07;;;;;;;5.97;2.60;;;8.60;94.80;;;;;;5048304;28;20091;-83
2021/03/23 01:12:32;;;;;;;5.65;2.33;;;8.60;94.70;;;;;;5048513;28;20483;-83
2021/03/23 01:14:58;;;;;;;7.45;2.60;;;8.50;94.80;;;;;;5051243;28;20076;-82
2021/03/23 01:17:24;;;;;;;3.72;2.20;;;8.70;94.60;;;;;;5049172;28;20118;-83
2021/03/23 01:19:50;;;;;;;9.43;2.67;;;8.70;94.50;;;;;;5049419;28;20368;-81
2021/03/23 01:22:16;;;;;;;6.10;2.40;;;8.70;94.30;;;;;;5049616;28;20131;-82
2021/03/23 01:24:41;;;;;;;3.47;2.13;;;8.60;94.30;;;;;;5049069;28;20055;-83
2021/03/23 01:27:14;;;;;;;10.48;2.65;;;8.50;94.60;;;;;;5050873;28;20029;-84
2021/03/23 01:29:41;;;;;;;5.90;2.30;;;8.50;94.60;;;;;;5029013;28;20465;-83
2021/03/23 01:32:07;;;;;;;6.18;2.25;;;8.60;94.70;;;;;;5044095;28;20045;-85
2021/03/23 01:34:32;;;;;;;7.22;2.10;;;8.60;94.60;;;;;;5038624;28;20038;-83
2021/03/23 01:36:58;;;;;;;9.90;3.05;;;8.70;94.60;;;;;;5034931;28;20665;-84
2021/03/23 01:39:24;;;;;;;6.78;2.25;;;8.50;94.70;;;;;;5048211;28;20024;-85
2021/03/23 01:41:49;;;;;;;5.38;2.10;;;8.40;94.80;;;;;;5031188;28;20026;-85
2021/03/23 01:44:15;;;;;;;5.93;2.78;;;8.40;94.90;;;;;;5045905;28;20036;-84
2021/03/23 01:46:46;;;;;;;4.93;2.20;;;8.40;95.40;;;;;;5051417;28;20482;-85
2021/03/23 01:49:27;;;;;;;14.13;2.97;;;8.30;95.60;;;;;;5051941;28;20465;-84
2021/03/23 01:52:01;;;;;;;9.50;2.40;;;8.30;95.90;;;;;;5051187;28;20396;-82
2021/03/23 01:54:39;;;;;;;5.25;2.17;;;8.50;95.70;;;;;;5052874;28;20374;-84
2021/03/23 01:57:09;;;;;;;12.00;2.40;;;8.50;95.80;;;;;;5053796;28;20071;-83
2021/03/23 01:59:43;;;;;;;7.30;2.72;;;8.50;95.80;;;;;;5053186;28;20072;-83
2021/03/23 02:02:09;;;;;;;6.18;2.25;;;8.40;95.80;;;;;;5051532;28;20033;-84
2021/03/23 02:04:35;;;;;;;7.22;2.25;;;8.30;95.90;;;;;;5052456;28;20036;-84
2021/03/23 02:07:01;;;;;;;8.30;2.40;;;8.40;96.00;;;;;;5051416;28;20105;-85
2021/03/23 02:09:30;;;;;;;6.07;2.05;;;8.40;95.80;;;;;;5051487;28;20036;-82
2021/03/23 02:12:12;;;;;;;12.90;2.75;;;8.40;95.70;;;;;;5052844;28;20071;-82
2021/03/23 02:14:46;;;;;;;3.78;2.05;;;8.20;95.80;;;;;;5052446;28;20033;-83
2021/03/23 02:17:19;;;;;;;5.30;2.30;;;8.30;96.00;;;;;;5052783;28;20052;-84
2021/03/23 02:19:45;;;;;;;4.15;2.17;;;8.40;95.90;;;;;;5052888;28;20036;-84
2021/03/23 02:22:28;;;;;;;9.32;2.40;;;8.40;95.80;;;;;;5051743;28;20033;-85
2021/03/23 02:24:53;;;;;;;4.45;2.05;;;8.30;95.80;;;;;;5051078;28;20033;-85
2021/03/23 02:27:21;;;;;;;7.82;2.28;;;8.50;95.80;;;;;;5052375;28;20033;-83
2021/03/23 02:29:48;;;;;;;3.47;1.77;;;8.30;95.60;;;;;;5053125;28;20017;-84
2021/03/23 02:32:14;;;;;;;4.60;2.87;;;8.40;95.70;;;;;;5052750;28;20104;-84
2021/03/23 02:34:39;;;;;;;6.18;1.90;;;8.30;95.80;;;;;;5052933;28;20052;-84
2021/03/23 02:37:05;;;;;;;7.43;1.92;;;8.20;95.70;;;;;;5051105;28;20033;-84
2021/03/23 02:39:33;;;;;;;6.50;2.22;;;8.20;95.90;;;;;;5052476;28;20156;-83
2021/03/23 02:41:59;;;;;;;6.05;2.50;;;8.30;95.70;;;;;;5054481;28;20029;-83
2021/03/23 02:44:26;;;;;;;6.95;2.53;;;8.20;95.60;;;;;;5053018;28;20115;-83
2021/03/23 02:46:52;;;;;;;5.45;2.20;;;8.40;95.50;;;;;;5052534;28;20478;-83
2021/03/23 02:49:17;;;;;;;8.02;2.10;;;8.30;95.60;;;;;;5052380;28;20047;-84
2021/03/23 02:51:43;;;;;;;7.18;2.70;;;8.40;95.40;;;;;;5052766;28;20029;-84
2021/03/23 02:54:09;;;;;;;6.35;2.40;;;8.40;95.30;;;;;;5054314;28;20021;-85
2021/03/23 02:56:36;;;;;;;12.68;2.63;;;8.40;95.20;;;;;;5052134;28;20053;-86
2021/03/23 02:59:03;;;;;;;6.20;2.65;;;8.40;95.20;;;;;;5052895;28;20103;-85
2021/03/23 03:01:28;;;;;;;7.45;2.70;;;8.40;95.10;;;;;;5051503;28;20471;-84
2021/03/23 03:03:54;;;;;;;5.47;2.35;;;8.40;95.40;;;;;;5051780;28;20094;-83
2021/03/23 03:06:19;;;;;;;9.05;3.20;;;8.30;95.10;;;;;;5051791;28;20064;-84
2021/03/23 03:08:46;;;;;;;6.82;2.50;;;8.30;95.10;;;;;;5052463;28;20383;-83
2021/03/23 03:11:12;;;;;;;6.35;2.38;;;8.30;95.10;;;;;;5050745;28;20048;-86
2021/03/23 03:13:40;;;;;;;5.43;2.60;;;8.30;95.10;;;;;;5050727;28;20067;-85
2021/03/23 03:16:06;;;;;;;9.45;3.05;;;8.50;95.10;;;;;;5051112;28;20040;-86
2021/03/23 03:18:31;;;;;;;5.63;2.33;;;8.50;95.00;;;;;;5048781;28;20029;-85
2021/03/23 03:20:59;;;;;;;8.18;2.70;;;8.40;94.80;;;;;;5032212;28;20057;-85
2021/03/23 03:23:25;;;;;;;8.23;2.60;;;8.50;94.90;;;;;;5048870;28;20051;-86
2021/03/23 03:25:52;;;;;;;5.60;2.58;;;8.40;94.90;;;;;;5051704;28;20037;-86
2021/03/23 03:28:18;;;;;;;4.90;2.35;;;8.40;95.00;;;;;;5045521;28;20042;-85
2021/03/23 03:30:45;;;;;;;10.55;2.65;;;8.40;95.20;;;;;;5046601;28;20045;-86
2021/03/23 03:33:14;;;;;;;6.90;2.75;;;8.50;95.10;;;;;;5033033;28;20108;-84
2021/03/23 03:35:42;;;;;;;9.27;2.85;;;8.50;95.00;;;;;;5051178;28;20101;-84
2021/03/23 03:38:08;;;;;;;6.30;2.83;;;8.50;95.10;;;;;;5051416;28;20044;-85
2021/03/23 03:40:45;;;;;;;6.30;2.97;;;8.60;95.00;;;;;;5040351;28;20371;-84
2021/03/23 03:43:14;;;;;;;6.45;2.55;;;8.50;94.90;;;;;;5038542;28;20059;-85
2021/03/23 03:45:39;;;;;;;6.00;3.17;;;8.60;95.00;;;;;;5050801;28;20107;-85
2021/03/23 03:48:06;;;;;;;8.15;2.80;;;8.40;94.90;;;;;;5052484;28;20017;-84
2021/03/23 03:50:32;;;;;;;5.57;2.65;;;8.40;95.00;;;;;;5049689;28;20382;-85
2021/03/23 03:52:57;;;;;;;7.35;3.38;;;8.40;95.10;;;;;;5051818;28;20033;-87
2021/03/23 03:55:28;;;;;;;8.27;2.65;;;8.50;95.00;;;;;;5051876;28;20746;-87
2021/03/23 03:57:54;;;;;;;8.95;2.90;;;8.60;94.90;;;;;;5051047;28;20029;-86
2021/03/23 04:00:22;;;;;;;8.80;3.10;;;8.60;94.80;;;;;;5050352;28;20363;-86
2021/03/23 04:02:48;;;;;;;;;;;8.60;94.90;;;;;;5052002;28;20040;-85
2021/03/23 04:05:24;;;;;;;10.57;3.85;;;8.60;94.90;;;;;;5049870;28;19995;-86
2021/03/23 04:07:50;;;;;;;9.15;3.40;;;8.50;95.20;;;;;;5048898;28;20032;-85
2021/03/23 04:10:16;;;;;;;9.88;3.85;;;8.50;95.30;;;;;;5049531;28;20344;-85
2021/03/23 04:12:42;;;;;;;10.30;3.35;;;8.60;95.30;;;;;;5050680;28;20041;-86
2021/03/23 04:15:09;;;;;;;14.00;4.53;;;8.60;95.40;;;;;;5052032;28;20343;-85
2021/03/23 04:17:35;;;;;;;10.97;4.23;;;8.40;95.70;;;;;;5050823;28;20025;-86
2021/03/23 04:20:01;;;;;;;9.50;3.88;;;8.40;95.80;;;;;;5049046;28;20343;-85
2021/03/23 04:22:27;;;;;;;11.65;4.15;;;8.50;95.80;;;;;;5050311;28;20033;-84
2021/03/23 04:24:52;;;;;;;9.35;3.90;;;8.50;95.80;;;;;;5050090;28;20029;-83
2021/03/23 04:27:18;;;;;;;9.70;3.63;;;8.40;95.80;;;;;;5049810;28;20033;-84
2021/03/23 04:29:45;;;;;;;8.32;4.03;;;8.40;95.90;;;;;;5052181;28;20028;-85
2021/03/23 04:32:10;;;;;;;7.88;3.83;;;8.40;96.00;;;;;;5033355;28;20034;-84
2021/03/23 04:34:36;;;;;;;8.60;3.72;;;8.50;95.90;;;;;;5041111;28;20075;-82
2021/03/23 04:37:03;;;;;;;10.02;4.05;;;8.60;95.80;;;;;;5048811;28;20056;-86
2021/03/23 04:39:28;;;;;;;7.60;3.53;;;8.40;95.80;;;;;;5049018;28;20029;-87
2021/03/23 04:41:54;;;;;;;8.80;4.00;;;8.40;95.90;;;;;;5032875;28;20034;-85
2021/03/23 04:44:20;;;;;;;11.60;4.68;;;8.60;95.80;;;;;;5048242;28;20418;-86
2021/03/23 04:46:45;;;;;;;9.40;3.72;;;8.50;95.80;;;;;;5050139;28;20542;-87
2021/03/23 04:49:11;;;;;;;13.82;5.00;;;8.50;95.90;;;;;;5050680;28;20428;-90
2021/03/23 04:51:36;;;;;;;8.73;4.03;;;8.10;96.10;;;;;;5050669;28;20079;-77
2021/03/23 04:54:06;;;;;;;8.68;4.22;;;8.20;96.20;;;;;;5051092;28;20021;-80
2021/03/23 04:56:39;;;;;;;12.48;4.55;;;8.10;96.30;;;;;;5049204;28;20447;-82
2021/03/23 04:59:07;;;;;;;34.33;13.38;;;8.30;96.20;;;;;;5048112;28;20051;-82
2021/03/23 05:01:32;;;;;;;;;;;8.30;96.20;;;;;;5049978;28;20033;-82
2021/03/23 05:04:02;;;;;;;8.75;4.13;;;8.30;96.00;;;;;;5049454;28;19927;-81
2021/03/23 05:06:27;;;;;;;14.77;4.65;;;8.40;96.00;;;;;;5047825;28;20393;-81
2021/03/23 05:08:53;;;;;;;17.83;5.13;;;8.30;96.10;;;;;;5030185;28;20057;-82
2021/03/23 05:11:23;;;;;;;12.10;4.43;;;8.30;96.10;;;;;;5045268;28;20037;-82
2021/03/23 05:13:48;;;;;;;12.57;3.83;;;8.40;96.10;;;;;;5049234;28;20029;-81
2021/03/23 05:16:14;;;;;;;12.57;4.50;;;8.30;96.10;;;;;;5048332;28;20346;-82
2021/03/23 05:18:41;;;;;;;11.07;4.00;;;8.30;96.00;;;;;;5049316;28;20025;-82
2021/03/23 05:21:08;;;;;;;11.05;4.57;;;8.30;96.00;;;;;;5055697;28;20032;-84
2021/03/23 05:23:34;;;;;;;10.77;4.33;;;8.30;96.00;;;;;;5052479;28;20104;-82
2021/03/23 05:26:01;;;;;;;6.72;3.85;;;8.20;96.00;;;;;;5039328;28;20045;-84
2021/03/23 05:28:27;;;;;;;8.05;4.30;;;8.30;96.10;;;;;;5043119;28;20045;-85
2021/03/23 05:30:53;;;;;;;10.70;4.00;;;8.30;96.10;;;;;;5053262;28;20535;-81
2021/03/23 05:33:19;;;;;;;10.73;4.20;;;8.50;96.10;;;;;;5053176;28;20037;-82
2021/03/23 05:35:45;;;;;;;8.88;4.25;;;8.30;96.00;;;;;;5054981;28;20027;-83
2021/03/23 05:38:11;;;;;;;11.70;4.43;;;8.40;96.00;;;;;;5053082;28;20116;-83
2021/03/23 05:40:42;;;;;;;11.80;4.38;;;8.40;96.00;;;;;;5053332;28;20041;-82
2021/03/23 05:43:32;;;;;;;10.63;4.70;;;8.30;96.00;;;;;;5053457;28;20061;-84
2021/03/23 05:46:27;;;;;;;7.78;4.00;;;8.40;96.00;;;;;;5052895;28;20059;-84
2021/03/23 05:49:26;;;;;;;12.68;4.28;;;8.50;96.00;;;;;;5052819;28;20044;-82
2021/03/23 05:52:04;;;;;;;10.60;3.80;;;8.40;95.90;;;;;;5052846;28;20037;-82
2021/03/23 05:54:45;;;;;;;7.93;3.70;;;8.50;95.90;;;;;;5052114;28;20031;-81
2021/03/23 05:57:44;;;;;;;6.03;3.35;;;8.40;95.80;;;;;;5054438;28;20082;-82
2021/03/23 06:00:26;;;;;;;10.38;4.55;;;8.40;95.90;;;;;;5052192;28;20037;-84
2021/03/23 06:03:03;;;;;;;11.20;3.97;;;8.40;95.90;;;;;;5053110;28;20047;-82
2021/03/23 06:05:41;;;;;;;11.77;3.87;;;8.40;96.10;;;;;;5051231;28;20421;-85
2021/03/23 06:08:26;;;;;;;10.27;4.72;;;8.40;96.00;;;;;;5052973;28;20045;-84
2021/03/23 06:11:13;;;;;;;9.48;4.22;;;8.30;96.10;;;;;;5051651;28;20061;-82
2021/03/23 06:13:59;;;;;;;10.98;4.15;;;8.40;96.10;;;;;;5052960;28;20029;-81
2021/03/23 06:16:37;;;;;;;10.30;4.07;;;8.40;96.10;;;;;;5052686;28;20298;-81
2021/03/23 06:19:07;;;;;;;;;;;8.40;96.30;;;;;;5053763;28;20490;-82
2021/03/23 06:21:45;;;;;;;9.18;3.83;;;8.40;96.30;;;;;;5052767;28;19904;-82
2021/03/23 06:24:22;;;;;;;12.15;3.95;;;8.40;96.30;;;;;;5054288;28;20114;-81
2021/03/23 06:27:00;;;;;;;7.50;3.70;;;8.40;96.30;;;;;;5053063;28;20033;-81
2021/03/23 06:29:47;;;;;;;10.80;3.85;;;8.40;96.40;;;;;;5052964;28;20525;-81
2021/03/23 06:32:26;;;;;;;13.30;4.38;;;8.40;96.40;;;;;;5053988;28;20265;-82
2021/03/23 06:34:57;;;;;;;10.68;3.85;;;8.40;96.30;;;;;;5053189;28;20048;-79
2021/03/23 06:37:31;;;;;;;8.88;3.78;;;8.30;96.30;;;;;;5052612;28;20512;-84
2021/03/23 06:39:59;;;;;;;17.70;4.28;;;8.40;96.40;;;;;;5052910;28;20037;-82
2021/03/23 06:42:37;;;;;;;10.00;4.38;;;8.40;96.20;;;;;;5052275;28;20021;-84
2021/03/23 06:45:20;;;;;;;9.73;4.20;;;8.40;96.30;;;;;;5053546;28;20025;-82
2021/03/23 06:47:47;;;;;;;13.18;3.70;;;8.40;96.20;;;;;;5053189;28;20067;-82
2021/03/23 06:50:24;;;;;;;9.27;3.92;;;8.40;96.20;;;;;;5053100;28;20039;-81
2021/03/23 06:53:18;;;;;;;11.10;3.55;;;8.50;96.00;;;;;;5053535;28;20518;-83
2021/03/23 06:55:46;;;;;;;10.18;3.65;;;8.50;96.00;;;;;;5053433;28;20080;-84
2021/03/23 06:58:23;;;;;;;16.27;4.00;;;8.50;96.00;;;;;;5053206;28;20041;-85
2021/03/23 07:01:19;;;;;;;9.88;3.45;;;8.50;95.80;;;;;;5052675;28;20036;-86
2021/03/23 07:03:49;;;;;;;10.90;3.75;;;8.50;95.80;;;;;;5052791;28;20103;-85
2021/03/23 07:06:30;;;;;;;13.55;3.45;;;8.50;95.80;;;;;;5055229;28;20089;-85
2021/03/23 07:09:22;;;;;;;9.25;3.47;;;8.60;95.80;;;;;;5054152;28;20041;-86
2021/03/23 07:11:59;;;;;;;11.80;3.22;;;8.70;95.80;;;;;;5054334;28;20029;-85
2021/03/23 07:14:34;;;;;;;5.00;2.73;;;8.60;95.50;;;;;;5052288;28;20039;-84
2021/03/23 07:17:10;;;;;;;6.15;3.17;;;8.50;95.60;;;;;;5052904;28;20061;-85
2021/03/23 07:19:59;;;;;;;10.77;3.30;;;8.50;95.60;;;;;;5053692;28;20138;-85
2021/03/23 07:22:40;;;;;;;6.72;3.17;;;8.50;95.50;;;;;;5052467;28;20037;-86
2021/03/23 07:25:29;;;;;;;10.25;3.63;;;8.50;95.50;;;;;;5054037;28;20045;-86
2021/03/23 07:28:36;;;;;;;7.78;3.30;;;8.60;95.40;;;;;;5053040;28;20482;-87
2021/03/23 07:31:05;;;;;;;;;;;8.60;95.30;;;;;;5052914;28;20037;-81
2021/03/23 07:33:36;;;;;;;11.80;3.53;;;8.70;95.20;;;;;;5052378;28;19905;-82
2021/03/23 07:36:03;;;;;;;7.95;3.70;;;8.70;95.10;;;;;;5054126;28;20048;-85
2021/03/23 07:38:40;;;;;;;8.02;2.88;;;8.80;95.10;;;;;;5051088;28;20033;-81
2021/03/23 07:41:12;;;;;;;8.85;3.47;;;8.80;94.80;;;;;;5050281;28;20120;-82
2021/03/23 07:43:52;;;;;;;12.10;3.80;;;8.80;94.70;;;;;;5050568;28;20116;-81
2021/03/23 07:46:27;;;;;;;6.75;3.20;;;8.70;94.50;;;;;;5050634;28;20051;-82
2021/03/23 07:48:58;;;;;;;8.75;4.00;;;8.70;94.40;;;;;;5050697;28;20040;-82
2021/03/23 07:51:44;;;;;;;6.22;3.15;;;8.80;94.60;;;;;;5049035;28;20039;-81
2021/03/23 07:54:30;;;;;;;21.40;4.07;;;8.80;94.40;;;;;;5052431;28;20074;-85
2021/03/23 07:57:08;;;;;;;12.32;3.47;;;8.80;94.30;;;;;;5051658;28;20037;-83
2021/03/23 07:59:45;;;;;;;10.15;3.13;;;8.80;94.20;;;;;;5051339;28;20037;-83
2021/03/23 08:02:14;;;;;;;8.30;2.97;;;8.80;94.20;;;;;;5050609;28;20371;-85
2021/03/23 08:04:54;;;;;;;13.52;3.45;;;8.70;94.00;;;;;;5051585;28;20037;-85
2021/03/23 08:07:36;;;;;;;7.82;3.03;;;8.90;93.90;;;;;;5050831;28;20048;-84
2021/03/23 08:10:17;;;;;;;12.93;3.92;;;9.00;93.90;;;;;;5051586;28;20366;-83
2021/03/23 08:12:43;;;;;;;8.70;3.47;;;9.00;93.60;;;;;;5050844;28;20116;-84
2021/03/23 08:15:26;;;;;;;12.52;3.47;;;9.10;93.40;;;;;;5052830;28;20215;-85
2021/03/23 08:18:00;;;;;;;14.93;3.90;;;9.10;93.30;;;;;;5052027;28;20037;-82
2021/03/23 08:20:54;;;;;;;9.15;3.40;;;9.20;93.20;;;;;;5051744;28;20056;-85
2021/03/23 08:23:28;;;;;;;7.68;3.60;;;9.30;92.90;;;;;;5050509;28;20029;-85
2021/03/23 08:26:31;;;;;;;7.90;3.30;;;9.40;92.90;;;;;;5051254;28;20037;-87
2021/03/23 08:29:13;;;;;;;11.60;3.65;;;9.40;92.70;;;;;;5051139;28;20029;-85
2021/03/23 08:31:43;;;;;;;9.95;3.33;;;9.50;92.40;;;;;;5051487;28;20025;-84
2021/03/23 08:34:40;;;;;;;9.00;3.03;;;9.40;92.40;;;;;;5051644;28;20463;-84
2021/03/23 08:37:15;;;;;;;14.32;3.58;;;9.50;92.00;;;;;;5051569;28;20096;-85
2021/03/23 08:40:24;;;;;;;9.02;3.20;;;9.50;91.90;;;;;;5050186;28;20098;-84
2021/03/23 08:42:49;;;;;;;12.75;3.47;;;9.50;92.00;;;;;;5046063;28;20041;-82
2021/03/23 08:45:18;;;;;;;9.52;3.67;;;9.60;91.70;;;;;;5032414;28;20032;-82
2021/03/23 08:47:47;;;;;;;6.22;3.40;;;9.70;91.60;;;;;;5041306;28;20463;-84
2021/03/23 08:50:22;;;;;;;11.20;4.15;;;9.60;91.50;;;;;;5032928;28;20170;-82
2021/03/23 08:52:50;;;;;;;6.55;3.55;;;9.60;91.50;;;;;;5029726;28;20098;-84
2021/03/23 08:55:25;;;;;;;16.67;4.10;;;9.70;91.50;;;;;;5037550;28;20033;-83
2021/03/23 08:58:05;;;;;;;13.43;3.83;;;9.90;91.50;;;;;;5049582;28;20523;-83
2021/03/23 09:00:37;;;;;;;11.90;3.92;;;9.70;91.40;;;;;;5049350;28;20017;-86
2021/03/23 09:03:09;;;;;;;10.77;4.25;;;9.60;91.30;;;;;;5051408;28;20435;-83
2021/03/23 09:05:51;;;;;;;9.32;4.72;;;9.70;91.50;;;;;;5050916;28;20085;-85
2021/03/23 09:08:39;;;;;;;12.57;3.78;;;9.80;91.30;;;;;;5053442;28;20091;-88
2021/03/23 09:11:13;;;;;;;12.73;4.70;;;9.80;91.30;;;;;;5051447;28;20102;-86
2021/03/23 09:13:39;;;;;;;11.45;4.43;;;9.80;91.10;;;;;;5052395;28;20029;-85
2021/03/23 09:16:17;;;;;;;11.68;4.38;;;9.80;91.00;;;;;;5051012;28;20025;-85
2021/03/23 09:19:08;;;;;;;15.30;4.80;;;9.80;91.00;;;;;;5049458;28;20427;-86
2021/03/23 09:22:00;;;;;;;13.07;4.30;;;9.80;91.10;;;;;;5050741;28;20035;-87
2021/03/23 09:24:30;;;;;;;11.98;4.90;;;9.80;91.00;;;;;;5049431;28;20037;-86
2021/03/23 09:26:57;;;;;;;16.70;5.55;;;9.80;91.00;;;;;;5052711;28;20061;-87
2021/03/23 09:29:32;;;;;;;16.13;5.35;;;9.60;91.10;;;;;;5050664;28;20029;-86
2021/03/23 09:32:04;;;;;;;14.55;4.85;;;9.70;91.10;;;;;;5050714;28;20103;-87
2021/03/23 09:35:05;;;;;;;16.38;4.78;;;9.80;90.90;;;;;;5050480;28;20037;-87
2021/03/23 09:37:49;;;;;;;17.35;5.20;;;9.90;91.00;;;;;;5050586;28;20029;-84
2021/03/23 09:40:18;;;;;;;16.58;4.90;;;10.00;90.30;;;;;;5053411;28;20138;-85
2021/03/23 09:43:06;;;;;;;18.02;4.70;;;10.00;90.30;;;;;;5050014;28;20048;-89
2021/03/23 09:45:48;;;;;;;16.92;5.40;;;10.00;90.30;;;;;;5050724;28;20171;-86
2021/03/23 09:48:14;;;;;;;18.15;5.97;;;10.00;90.40;;;;;;5051982;28;20043;-87
2021/03/23 09:50:52;;;;;;;19.75;5.95;;;10.00;90.40;;;;;;5048238;28;20374;-87
2021/03/23 09:53:38;;;;;;;14.90;6.32;;;10.10;90.30;;;;;;5050117;28;20101;-83
2021/03/23 09:56:06;;;;;;;19.85;5.60;;;10.10;90.30;;;;;;5049876;28;20047;-86
2021/03/23 09:58:31;;;;;;;19.53;6.37;;;10.10;90.30;;;;;;5049757;28;20512;-85
2021/03/23 10:01:20;;;;;;;17.00;6.10;;;10.00;90.70;;;;;;5048463;28;20107;-87
2021/03/23 10:03:49;;;;;;;12.50;6.22;;;10.20;90.40;;;;;;5049833;28;20021;-84
2021/03/23 10:06:26;;;;;;;17.20;6.43;;;10.40;90.00;;;;;;5052389;28;20461;-87
2021/03/23 10:09:08;;;;;;;16.75;7.15;;;10.40;90.00;;;;;;5052579;28;20090;-84
2021/03/23 10:11:37;;;;;;;17.23;7.22;;;10.20;90.00;;;;;;5053216;28;20621;-85
2021/03/23 10:14:09;;;;;;;17.17;7.25;;;10.40;90.10;;;;;;5053046;28;20095;-84
2021/03/23 10:16:36;;;;;;;25.30;7.20;;;10.50;89.60;;;;;;5053795;28;20067;-85
2021/03/23 10:19:23;;;;;;;13.45;6.82;;;10.60;89.90;;;;;;5056192;28;20116;-85
2021/03/23 10:21:52;;;;;;;21.60;8.45;;;10.80;89.50;;;;;;5052952;28;20060;-83
2021/03/23 10:24:23;;;;;;;18.63;7.63;;;10.70;89.10;;;;;;5052408;28;20696;-84
2021/03/23 10:26:52;;;;;;;17.90;7.53;;;10.80;89.00;;;;;;5052800;28;20035;-86
2021/03/23 10:29:27;;;;;;;16.95;7.85;;;10.90;89.00;;;;;;5052382;28;20130;-86
2021/03/23 10:31:57;;;;;;;23.88;8.57;;;10.90;88.90;;;;;;5053607;28;20112;-86
2021/03/23 10:34:28;;;;;;;17.13;7.50;;;10.80;89.10;;;;;;5053295;28;20048;-87
2021/03/23 10:36:55;;;;;;;21.38;7.60;;;10.80;89.10;;;;;;5051430;28;20045;-84
2021/03/23 10:39:44;;;;;;;20.57;7.27;;;10.90;89.10;;;;;;5050945;28;20024;-86
2021/03/23 10:42:25;;;;;;;20.92;7.75;;;11.10;88.50;;;;;;5048397;28;20029;-85
2021/03/23 10:45:08;;;;;;;20.63;8.15;;;10.80;88.80;;;;;;5052677;28;20048;-85
2021/03/23 10:47:38;;;;;;;15.00;7.80;;;10.90;89.30;;;;;;5052686;28;20057;-86
2021/03/23 10:50:23;;;;;;;19.25;8.18;;;10.90;89.10;;;;;;5051667;28;20099;-86
2021/03/23 10:52:50;;;;;;;18.23;7.65;;;11.10;89.20;;;;;;5050869;28;20074;-85
2021/03/23 10:55:23;;;;;;;18.13;6.95;;;11.30;89.20;;;;;;5052536;28;20077;-86
2021/03/23 10:57:49;;;;;;;20.33;8.45;;;11.40;88.40;;;;;;5052262;28;20036;-86
2021/03/23 11:00:34;;;;;;;20.25;7.90;;;11.30;88.30;;;;;;5052808;28;20021;-86
2021/03/23 11:03:13;;;;;;;23.85;9.77;;;11.20;88.60;;;;;;5050995;28;20514;-83
2021/03/23 11:05:48;;;;;;;20.80;9.30;;;11.10;88.40;;;;;;5051341;28;20095;-83
2021/03/23 11:08:16;;;;;;;27.70;9.90;;;11.00;88.80;;;;;;5051436;28;20049;-86
2021/03/23 11:10:43;;;;;;;22.13;9.30;;;11.10;89.10;;;;;;5050712;28;20051;-83
2021/03/23 11:13:14;;;;;;;34.63;9.98;;;11.20;89.30;;;;;;5052115;28;20040;-84
2021/03/23 11:15:41;;;;;;;19.30;10.23;;;11.40;88.80;;;;;;5051148;28;20098;-86
2021/03/23 11:18:28;;;;;;;32.80;10.55;;;11.40;87.70;;;;;;5051459;28;20044;-84
2021/03/23 11:20:55;;;;;;;20.13;10.75;;;11.40;88.00;;;;;;5050438;28;20127;-89
2021/03/23 11:23:41;;;;;;;20.77;9.98;;;11.40;88.20;;;;;;5051279;28;20094;-86
2021/03/23 11:26:10;;;;;;;25.92;10.55;;;11.30;87.70;;;;;;5050988;28;20481;-84
2021/03/23 11:28:36;;;;;;;23.88;11.60;;;11.20;88.00;;;;;;5050738;28;20131;-83
2021/03/23 11:31:03;;;;;;;26.80;11.32;;;11.00;88.30;;;;;;5050554;28;20619;-83
2021/03/23 11:33:30;;;;;;;27.53;11.57;;;11.10;88.40;;;;;;5050312;28;20405;-81
2021/03/23 11:35:56;;;;;;;24.67;10.80;;;11.20;88.20;;;;;;5051998;28;20047;-81
2021/03/23 11:38:23;;;;;;;25.00;10.55;;;11.30;88.20;;;;;;5049055;28;20102;-82
2021/03/23 11:40:52;;;;;;;29.27;11.90;;;11.20;88.00;;;;;;5050005;28;20049;-84
2021/03/23 11:43:35;;;;;;;23.80;11.20;;;11.10;88.00;;;;;;5050399;28;20127;-82
2021/03/23 11:46:49;;;;;;;23.90;10.30;;;11.10;87.90;;;;;;5050069;28;20052;-76
2021/03/23 11:49:23;;;;;;;22.02;12.18;;;11.20;89.40;;;;;;5046535;28;20445;-86
2021/03/23 11:51:49;;;;;;;23.58;12.02;;;11.20;87.80;;;;;;5050416;28;20759;-86
2021/03/23 11:54:15;;;;;;;26.02;12.65;;;11.20;87.70;;;;;;5052269;28;20052;-84
2021/03/23 11:56:41;;;;;;;23.17;11.30;;;11.20;87.30;;;;;;5050312;28;20072;-85
2021/03/23 11:59:07;;;;;;;27.20;11.70;;;11.20;87.80;;;;;;5050258;28;20037;-86
2021/03/23 12:01:33;;;;;;;27.00;12.05;;;11.20;87.80;;;;;;5049904;28;20037;-86
2021/03/23 12:03:59;;;;;;;24.27;11.95;;;11.20;87.40;;;;;;5050554;28;20482;-87
2021/03/23 12:06:46;;;;;;;27.00;12.63;;;11.30;87.50;;;;;;5049314;28;20029;-85
2021/03/23 12:09:22;;;;;;;31.38;12.70;;;11.40;87.40;;;;;;5052202;28;20074;-86
2021/03/23 12:12:13;;;;;;;24.75;13.38;;;11.40;87.10;;;;;;5049727;28;20438;-83
2021/03/23 12:15:14;;;;;;;25.88;13.57;;;11.40;87.10;;;;;;5050001;28;20040;-85
2021/03/23 12:17:46;;;;;;;32.17;14.32;;;11.10;86.70;;;;;;5022636;28;20576;-86
2021/03/23 12:20:18;;;;;;;28.10;13.68;;;11.10;86.90;;;;;;5030010;28;20056;-85
2021/03/23 12:22:44;;;;;;;27.85;13.55;;;11.20;87.00;;;;;;5030281;28;20060;-87
2021/03/23 12:25:11;;;;;;;29.73;14.10;;;11.30;87.00;;;;;;5028922;28;20060;-87
2021/03/23 12:27:37;;;;;;;29.77;14.70;;;11.30;86.30;;;;;;5033742;28;20053;-83
2021/03/23 12:30:05;;;;;;;31.13;15.05;;;11.20;86.30;;;;;;5051372;28;20377;-85
2021/03/23 12:32:33;;;;;;;31.15;14.48;;;11.40;86.70;;;;;;5050705;28;20072;-84
2021/03/23 12:34:59;;;;;;;55.47;16.83;;;11.40;86.30;;;;;;5051133;28;20045;-87
2021/03/23 12:37:25;;;;;;;33.28;15.18;;;11.50;86.20;;;;;;5051525;28;20071;-84
2021/03/23 12:39:55;;;;;;;37.88;15.85;;;11.70;86.10;;;;;;5052392;28;20032;-85
2021/03/23 12:42:24;;;;;;;28.92;15.13;;;11.70;85.40;;;;;;5050179;28;20674;-85
2021/03/23 12:44:50;;;;;;;28.42;15.73;;;11.70;84.80;;;;;;5052771;28;20112;-84
2021/03/23 12:47:16;;;;;;;36.30;16.60;;;11.70;85.20;;;;;;5052014;28;20171;-84
2021/03/23 12:49:43;;;;;;;30.08;15.63;;;11.70;84.90;;;;;;5051453;28;20629;-84
2021/03/23 12:52:11;;;;;;;36.08;15.88;;;11.70;85.10;;;;;;5050119;28;20108;-84
2021/03/23 12:54:37;;;;;;;;;;;11.70;84.70;;;;;;5050114;28;20565;-83
2021/03/23 12:57:12;;;;;;;31.05;15.80;;;11.50;84.70;;;;;;5050194;28;19913;-83
2021/03/23 12:59:38;;;;;;;33.45;17.20;;;11.70;85.40;;;;;;5048632;28;20029;-84
2021/03/23 13:02:03;;;;;;;36.97;17.38;;;11.80;84.80;;;;;;5050063;28;20040;-84
2021/03/23 13:04:29;;;;;;;33.50;16.45;;;11.70;84.70;;;;;;5049853;28;20056;-85
2021/03/23 13:06:56;;;;;;;34.38;15.98;;;11.90;84.80;;;;;;5049427;28;20037;-83
2021/03/23 13:09:26;;;;;;;34.30;16.75;;;11.90;84.40;;;;;;5048218;28;20021;-85
2021/03/23 13:11:54;;;;;;;29.23;16.38;;;11.90;84.10;;;;;;5051205;28;20036;-84
2021/03/23 13:14:24;;;;;;;36.40;17.40;;;12.00;84.10;;;;;;5048585;28;20037;-83